sensor_id;sensor_type;location;lat;lon;timestamp;temperature;humidity
21568;DHT22;10944;42.590;12.630;2023-03-01T00:01:48;8.20;99.90
21568;DHT22;10944;42.590;12.630;2023-03-01T00:04:14;8.10;99.90
21568;DHT22;10944;42.590;12.630;2023-03-01T00:06:40;8.10;99.90
21568;DHT22;10944;42.590;12.630;2023-03-01T00:09:07;8.10;99.90
21568;DHT22;10944;42.590;12.630;2023-03-01T00:11:33;8.10;99.90
21568;DHT22;10944;42.590;12.630;2023-03-01T00:14:00;8.10;99.90
21568;DHT22;10944;42.590;12.630;2023-03-01T00:16:30;8.10;99.90
21568;DHT22;10944;42.590;12.630;2023-03-01T00:18:56;8.00;99.90
21568;DHT22;10944;42.590;12.630;2023-03-01T00:21:23;8.00;99.90
21568;DHT22;10944;42.590;12.630;2023-03-01T00:23:49;8.00;99.90
21568;DHT22;10944;42.590;12.630;2023-03-01T00:26:16;8.00;99.90
21568;DHT22;10944;42.590;12.630;2023-03-01T00:28:43;8.00;99.90
21568;DHT22;10944;42.590;12.630;2023-03-01T00:31:20;8.00;99.90
21568;DHT22;10944;42.590;12.630;2023-03-01T00:33:47;8.00;99.90
21568;DHT22;10944;42.590;12.630;2023-03-01T00:36:14;8.00;99.90
21568;DHT22;10944;42.590;12.630;2023-03-01T00:38:43;8.00;99.90
21568;DHT22;10944;42.590;12.630;2023-03-01T00:41:15;8.00;99.90
21568;DHT22;10944;42.590;12.630;2023-03-01T00:43:41;7.90;99.90
21568;DHT22;10944;42.590;12.630;2023-03-01T00:46:09;7.80;99.90
21568;DHT22;10944;42.590;12.630;2023-03-01T00:48:36;7.80;99.90
21568;DHT22;10944;42.590;12.630;2023-03-01T00:53:38;7.80;99.90
21568;DHT22;10944;42.590;12.630;2023-03-01T00:56:05;7.80;99.90
21568;DHT22;10944;42.590;12.630;2023-03-01T00:58:31;7.80;99.90
21568;DHT22;10944;42.590;12.630;2023-03-01T01:00:56;7.90;99.90
21568;DHT22;10944;42.590;12.630;2023-03-01T01:03:23;7.90;99.90
21568;DHT22;10944;42.590;12.630;2023-03-01T01:05:51;7.80;99.90
21568;DHT22;10944;42.590;12.630;2023-03-01T01:08:17;7.80;99.90
21568;DHT22;10944;42.590;12.630;2023-03-01T01:10:44;7.90;99.90
21568;DHT22;10944;42.590;12.630;2023-03-01T01:13:10;7.90;99.90
21568;DHT22;10944;42.590;12.630;2023-03-01T01:15:36;7.90;99.90
21568;DHT22;10944;42.590;12.630;2023-03-01T01:18:01;7.90;99.90
21568;DHT22;10944;42.590;12.630;2023-03-01T01:20:28;8.00;99.90
21568;DHT22;10944;42.590;12.630;2023-03-01T01:22:53;8.00;99.90
21568;DHT22;10944;42.590;12.630;2023-03-01T01:25:19;8.00;99.90
21568;DHT22;10944;42.590;12.630;2023-03-01T01:27:45;8.00;99.90
21568;DHT22;10944;42.590;12.630;2023-03-01T01:30:11;8.10;99.90
21568;DHT22;10944;42.590;12.630;2023-03-01T01:32:37;8.10;99.90
21568;DHT22;10944;42.590;12.630;2023-03-01T01:35:03;8.10;99.90
21568;DHT22;10944;42.590;12.630;2023-03-01T01:37:28;8.20;99.90
21568;DHT22;10944;42.590;12.630;2023-03-01T01:39:59;8.20;99.90
21568;DHT22;10944;42.590;12.630;2023-03-01T01:42:25;8.20;99.90
21568;DHT22;10944;42.590;12.630;2023-03-01T01:45:28;8.20;99.90
21568;DHT22;10944;42.590;12.630;2023-03-01T01:47:57;8.30;99.90
21568;DHT22;10944;42.590;12.630;2023-03-01T01:50:24;8.20;99.90
21568;DHT22;10944;42.590;12.630;2023-03-01T01:52:52;8.30;99.90
21568;DHT22;10944;42.590;12.630;2023-03-01T01:55:24;8.20;99.90
21568;DHT22;10944;42.590;12.630;2023-03-01T01:57:57;8.10;99.90
21568;DHT22;10944;42.590;12.630;2023-03-01T02:00:28;8.10;99.90
21568;DHT22;10944;42.590;12.630;2023-03-01T02:03:06;8.10;99.90
21568;DHT22;10944;42.590;12.630;2023-03-01T02:05:42;8.20;99.90
21568;DHT22;10944;42.590;12.630;2023-03-01T02:08:11;8.20;99.90
21568;DHT22;10944;42.590;12.630;2023-03-01T02:10:38;8.10;99.90
21568;DHT22;10944;42.590;12.630;2023-03-01T02:13:04;8.10;99.90
21568;DHT22;10944;42.590;12.630;2023-03-01T02:15:35;8.10;99.90
21568;DHT22;10944;42.590;12.630;2023-03-01T02:18:02;8.10;99.90
21568;DHT22;10944;42.590;12.630;2023-03-01T02:21:03;8.00;99.90
21568;DHT22;10944;42.590;12.630;2023-03-01T02:23:20;8.00;99.90
21568;DHT22;10944;42.590;12.630;2023-03-01T02:28:47;8.00;99.90
21568;DHT22;10944;42.590;12.630;2023-03-01T02:31:19;8.10;99.90
21568;DHT22;10944;42.590;12.630;2023-03-01T02:34:04;8.10;99.90
21568;DHT22;10944;42.590;12.630;2023-03-01T02:36:51;8.00;99.90
21568;DHT22;10944;42.590;12.630;2023-03-01T02:39:22;8.10;99.90
21568;DHT22;10944;42.590;12.630;2023-03-01T02:41:53;8.00;99.90
21568;DHT22;10944;42.590;12.630;2023-03-01T02:44:21;8.00;99.90
21568;DHT22;10944;42.590;12.630;2023-03-01T02:46:52;8.00;99.90
21568;DHT22;10944;42.590;12.630;2023-03-01T02:49:30;8.00;99.90
21568;DHT22;10944;42.590;12.630;2023-03-01T02:57:31;7.90;99.90
21568;DHT22;10944;42.590;12.630;2023-03-01T02:59:59;7.80;99.90
21568;DHT22;10944;42.590;12.630;2023-03-01T03:02:29;7.80;99.90
21568;DHT22;10944;42.590;12.630;2023-03-01T03:05:14;7.80;99.90
21568;DHT22;10944;42.590;12.630;2023-03-01T03:07:42;7.80;99.90
21568;DHT22;10944;42.590;12.630;2023-03-01T03:10:12;7.80;99.90
21568;DHT22;10944;42.590;12.630;2023-03-01T03:12:38;7.80;99.90
21568;DHT22;10944;42.590;12.630;2023-03-01T03:15:05;7.80;99.90
21568;DHT22;10944;42.590;12.630;2023-03-01T03:17:36;7.80;99.90
21568;DHT22;10944;42.590;12.630;2023-03-01T03:20:06;7.80;99.90
21568;DHT22;10944;42.590;12.630;2023-03-01T03:22:36;7.80;99.90
21568;DHT22;10944;42.590;12.630;2023-03-01T03:25:02;7.80;99.90
21568;DHT22;10944;42.590;12.630;2023-03-01T03:27:28;7.70;99.90
21568;DHT22;10944;42.590;12.630;2023-03-01T03:29:53;7.60;99.90
21568;DHT22;10944;42.590;12.630;2023-03-01T03:32:19;7.60;99.90
21568;DHT22;10944;42.590;12.630;2023-03-01T03:34:45;7.50;99.90
21568;DHT22;10944;42.590;12.630;2023-03-01T03:37:10;7.50;99.90
21568;DHT22;10944;42.590;12.630;2023-03-01T03:39:56;7.50;99.90
21568;DHT22;10944;42.590;12.630;2023-03-01T03:42:22;7.50;99.90
21568;DHT22;10944;42.590;12.630;2023-03-01T03:44:48;7.50;99.90
21568;DHT22;10944;42.590;12.630;2023-03-01T03:47:14;7.50;99.90
21568;DHT22;10944;42.590;12.630;2023-03-01T03:49:39;7.50;99.90
21568;DHT22;10944;42.590;12.630;2023-03-01T03:52:05;7.40;99.90
21568;DHT22;10944;42.590;12.630;2023-03-01T03:54:39;7.50;99.90
21568;DHT22;10944;42.590;12.630;2023-03-01T03:57:09;7.40;99.90
21568;DHT22;10944;42.590;12.630;2023-03-01T03:59:35;7.50;99.90
21568;DHT22;10944;42.590;12.630;2023-03-01T04:02:00;7.40;99.90
21568;DHT22;10944;42.590;12.630;2023-03-01T04:04:26;7.40;99.90
21568;DHT22;10944;42.590;12.630;2023-03-01T04:06:52;7.40;99.90
21568;DHT22;10944;42.590;12.630;2023-03-01T04:09:17;7.40;99.90
21568;DHT22;10944;42.590;12.630;2023-03-01T04:11:43;7.40;99.90
21568;DHT22;10944;42.590;12.630;2023-03-01T04:14:09;7.40;99.90
21568;DHT22;10944;42.590;12.630;2023-03-01T04:16:35;7.40;99.90
21568;DHT22;10944;42.590;12.630;2023-03-01T04:19:01;7.40;99.90
21568;DHT22;10944;42.590;12.630;2023-03-01T04:21:26;7.40;99.90
21568;DHT22;10944;42.590;12.630;2023-03-01T04:23:52;7.40;99.90
21568;DHT22;10944;42.590;12.630;2023-03-01T04:26:19;7.40;99.90
21568;DHT22;10944;42.590;12.630;2023-03-01T04:28:45;7.40;99.90
21568;DHT22;10944;42.590;12.630;2023-03-01T04:31:19;7.40;99.90
21568;DHT22;10944;42.590;12.630;2023-03-01T04:33:52;7.40;99.90
21568;DHT22;10944;42.590;12.630;2023-03-01T04:36:20;7.40;99.90
21568;DHT22;10944;42.590;12.630;2023-03-01T04:38:46;7.30;99.90
21568;DHT22;10944;42.590;12.630;2023-03-01T04:41:16;7.40;99.90
21568;DHT22;10944;42.590;12.630;2023-03-01T04:43:42;7.30;99.90
21568;DHT22;10944;42.590;12.630;2023-03-01T04:46:11;7.30;99.90
21568;DHT22;10944;42.590;12.630;2023-03-01T04:48:38;7.20;99.90
21568;DHT22;10944;42.590;12.630;2023-03-01T04:51:05;7.00;99.90
21568;DHT22;10944;42.590;12.630;2023-03-01T04:53:31;6.90;99.90
21568;DHT22;10944;42.590;12.630;2023-03-01T04:55:58;6.70;99.90
21568;DHT22;10944;42.590;12.630;2023-03-01T04:58:26;6.70;99.90
21568;DHT22;10944;42.590;12.630;2023-03-01T05:00:52;6.60;99.90
21568;DHT22;10944;42.590;12.630;2023-03-01T05:03:18;6.60;99.90
21568;DHT22;10944;42.590;12.630;2023-03-01T05:05:46;6.60;99.90
21568;DHT22;10944;42.590;12.630;2023-03-01T05:08:13;6.60;99.90
21568;DHT22;10944;42.590;12.630;2023-03-01T05:10:43;6.50;99.90
21568;DHT22;10944;42.590;12.630;2023-03-01T05:13:09;6.50;99.90
21568;DHT22;10944;42.590;12.630;2023-03-01T05:15:35;6.40;99.90
21568;DHT22;10944;42.590;12.630;2023-03-01T05:18:01;6.40;99.90
21568;DHT22;10944;42.590;12.630;2023-03-01T05:20:29;6.40;99.90
21568;DHT22;10944;42.590;12.630;2023-03-01T05:22:56;6.40;99.90
21568;DHT22;10944;42.590;12.630;2023-03-01T05:25:22;6.50;99.90
21568;DHT22;10944;42.590;12.630;2023-03-01T05:27:48;6.50;99.90
21568;DHT22;10944;42.590;12.630;2023-03-01T05:30:14;6.60;99.90
21568;DHT22;10944;42.590;12.630;2023-03-01T05:32:45;6.60;99.90
21568;DHT22;10944;42.590;12.630;2023-03-01T05:35:12;6.60;99.90
21568;DHT22;10944;42.590;12.630;2023-03-01T05:37:47;6.60;99.90
21568;DHT22;10944;42.590;12.630;2023-03-01T05:40:18;6.60;99.90
21568;DHT22;10944;42.590;12.630;2023-03-01T05:42:54;6.50;99.90
21568;DHT22;10944;42.590;12.630;2023-03-01T05:45:20;6.60;99.90
21568;DHT22;10944;42.590;12.630;2023-03-01T05:47:48;6.60;99.90
21568;DHT22;10944;42.590;12.630;2023-03-01T05:52:47;6.60;99.90
21568;DHT22;10944;42.590;12.630;2023-03-01T05:55:14;6.60;99.90
21568;DHT22;10944;42.590;12.630;2023-03-01T05:57:40;6.70;99.90
21568;DHT22;10944;42.590;12.630;2023-03-01T06:00:07;6.70;99.90
21568;DHT22;10944;42.590;12.630;2023-03-01T06:02:33;6.70;99.90
21568;DHT22;10944;42.590;12.630;2023-03-01T06:04:58;6.70;99.90
21568;DHT22;10944;42.590;12.630;2023-03-01T06:07:24;6.70;99.90
21568;DHT22;10944;42.590;12.630;2023-03-01T06:09:50;6.70;99.90
21568;DHT22;10944;42.590;12.630;2023-03-01T06:12:15;6.80;99.90
21568;DHT22;10944;42.590;12.630;2023-03-01T06:14:41;6.80;99.90
21568;DHT22;10944;42.590;12.630;2023-03-01T06:17:06;6.80;99.90
21568;DHT22;10944;42.590;12.630;2023-03-01T06:19:32;6.90;99.90
21568;DHT22;10944;42.590;12.630;2023-03-01T06:21:58;6.90;99.90
21568;DHT22;10944;42.590;12.630;2023-03-01T06:24:23;6.90;99.90
21568;DHT22;10944;42.590;12.630;2023-03-01T06:26:49;7.10;99.90
21568;DHT22;10944;42.590;12.630;2023-03-01T06:29:15;7.10;99.90
21568;DHT22;10944;42.590;12.630;2023-03-01T06:31:40;7.10;99.90
21568;DHT22;10944;42.590;12.630;2023-03-01T06:34:06;7.20;99.90
21568;DHT22;10944;42.590;12.630;2023-03-01T06:36:32;7.20;99.90
21568;DHT22;10944;42.590;12.630;2023-03-01T06:38:57;7.20;99.90
21568;DHT22;10944;42.590;12.630;2023-03-01T06:41:23;7.20;99.90
21568;DHT22;10944;42.590;12.630;2023-03-01T06:43:49;7.20;99.90
21568;DHT22;10944;42.590;12.630;2023-03-01T06:46:15;7.20;99.90
21568;DHT22;10944;42.590;12.630;2023-03-01T06:48:40;7.10;99.90
21568;DHT22;10944;42.590;12.630;2023-03-01T06:51:06;7.10;99.90
21568;DHT22;10944;42.590;12.630;2023-03-01T06:53:32;7.00;99.90
21568;DHT22;10944;42.590;12.630;2023-03-01T06:55:58;7.10;99.90
21568;DHT22;10944;42.590;12.630;2023-03-01T06:58:25;7.10;99.90
21568;DHT22;10944;42.590;12.630;2023-03-01T07:00:51;7.10;99.90
21568;DHT22;10944;42.590;12.630;2023-03-01T07:03:17;7.10;99.90
21568;DHT22;10944;42.590;12.630;2023-03-01T07:05:42;7.10;99.90
21568;DHT22;10944;42.590;12.630;2023-03-01T07:08:09;7.10;99.90
21568;DHT22;10944;42.590;12.630;2023-03-01T07:10:35;7.20;99.90
21568;DHT22;10944;42.590;12.630;2023-03-01T07:13:01;7.20;99.90
21568;DHT22;10944;42.590;12.630;2023-03-01T07:15:27;7.20;99.90
21568;DHT22;10944;42.590;12.630;2023-03-01T07:17:53;7.20;99.90
21568;DHT22;10944;42.590;12.630;2023-03-01T07:20:20;7.20;99.90
21568;DHT22;10944;42.590;12.630;2023-03-01T07:22:50;7.20;99.90
21568;DHT22;10944;42.590;12.630;2023-03-01T07:25:16;7.20;99.90
21568;DHT22;10944;42.590;12.630;2023-03-01T07:27:41;7.20;99.90
21568;DHT22;10944;42.590;12.630;2023-03-01T07:30:08;7.20;99.90
21568;DHT22;10944;42.590;12.630;2023-03-01T07:32:34;7.10;99.90
21568;DHT22;10944;42.590;12.630;2023-03-01T07:34:59;7.10;99.90
21568;DHT22;10944;42.590;12.630;2023-03-01T07:37:25;7.10;99.90
21568;DHT22;10944;42.590;12.630;2023-03-01T07:39:51;7.20;99.90
21568;DHT22;10944;42.590;12.630;2023-03-01T07:42:16;7.20;99.90
21568;DHT22;10944;42.590;12.630;2023-03-01T07:44:42;7.20;99.90
21568;DHT22;10944;42.590;12.630;2023-03-01T07:47:08;7.30;99.90
21568;DHT22;10944;42.590;12.630;2023-03-01T07:49:34;7.30;99.90
21568;DHT22;10944;42.590;12.630;2023-03-01T07:52:00;7.30;99.90
21568;DHT22;10944;42.590;12.630;2023-03-01T07:54:25;7.40;99.90
21568;DHT22;10944;42.590;12.630;2023-03-01T07:56:51;7.50;99.90
21568;DHT22;10944;42.590;12.630;2023-03-01T07:59:17;7.50;99.90
21568;DHT22;10944;42.590;12.630;2023-03-01T08:01:43;7.50;99.90
21568;DHT22;10944;42.590;12.630;2023-03-01T08:04:09;7.50;99.90
21568;DHT22;10944;42.590;12.630;2023-03-01T08:06:35;7.50;99.90
21568;DHT22;10944;42.590;12.630;2023-03-01T08:09:02;7.60;99.90
21568;DHT22;10944;42.590;12.630;2023-03-01T08:11:27;7.50;99.90
21568;DHT22;10944;42.590;12.630;2023-03-01T08:13:56;7.50;99.90
21568;DHT22;10944;42.590;12.630;2023-03-01T08:16:22;7.60;99.90
21568;DHT22;10944;42.590;12.630;2023-03-01T08:18:48;7.70;99.90
21568;DHT22;10944;42.590;12.630;2023-03-01T08:21:16;7.70;99.90
21568;DHT22;10944;42.590;12.630;2023-03-01T08:23:43;7.70;99.90
21568;DHT22;10944;42.590;12.630;2023-03-01T08:26:19;7.70;99.90
21568;DHT22;10944;42.590;12.630;2023-03-01T08:28:46;7.70;99.90
21568;DHT22;10944;42.590;12.630;2023-03-01T08:31:35;7.70;99.90
21568;DHT22;10944;42.590;12.630;2023-03-01T08:34:03;7.70;99.90
21568;DHT22;10944;42.590;12.630;2023-03-01T08:36:35;7.70;99.90
21568;DHT22;10944;42.590;12.630;2023-03-01T08:39:01;7.80;99.90
21568;DHT22;10944;42.590;12.630;2023-03-01T08:41:27;7.90;99.90
21568;DHT22;10944;42.590;12.630;2023-03-01T08:43:53;8.00;99.90
21568;DHT22;10944;42.590;12.630;2023-03-01T08:46:26;8.00;99.90
21568;DHT22;10944;42.590;12.630;2023-03-01T08:48:51;8.20;99.90
21568;DHT22;10944;42.590;12.630;2023-03-01T08:51:18;8.20;99.90
21568;DHT22;10944;42.590;12.630;2023-03-01T08:53:44;8.20;99.90
21568;DHT22;10944;42.590;12.630;2023-03-01T08:56:10;8.40;99.90
21568;DHT22;10944;42.590;12.630;2023-03-01T08:58:36;8.60;99.90
21568;DHT22;10944;42.590;12.630;2023-03-01T09:01:10;8.80;99.90
21568;DHT22;10944;42.590;12.630;2023-03-01T09:03:36;8.80;99.90
21568;DHT22;10944;42.590;12.630;2023-03-01T09:06:03;8.80;99.90
21568;DHT22;10944;42.590;12.630;2023-03-01T09:08:29;8.80;99.90
21568;DHT22;10944;42.590;12.630;2023-03-01T09:10:55;8.80;99.90
21568;DHT22;10944;42.590;12.630;2023-03-01T09:13:21;8.90;99.90
21568;DHT22;10944;42.590;12.630;2023-03-01T09:15:49;9.00;99.90
21568;DHT22;10944;42.590;12.630;2023-03-01T09:18:14;9.10;99.90
21568;DHT22;10944;42.590;12.630;2023-03-01T09:20:40;9.30;99.90
21568;DHT22;10944;42.590;12.630;2023-03-01T09:23:07;9.40;99.90
21568;DHT22;10944;42.590;12.630;2023-03-01T09:25:34;9.50;99.90
21568;DHT22;10944;42.590;12.630;2023-03-01T09:28:00;9.50;99.90
21568;DHT22;10944;42.590;12.630;2023-03-01T09:30:26;9.70;99.90
21568;DHT22;10944;42.590;12.630;2023-03-01T09:32:52;9.90;99.90
21568;DHT22;10944;42.590;12.630;2023-03-01T09:35:17;10.10;99.90
21568;DHT22;10944;42.590;12.630;2023-03-01T09:37:45;10.20;99.90
21568;DHT22;10944;42.590;12.630;2023-03-01T09:40:20;10.20;99.90
21568;DHT22;10944;42.590;12.630;2023-03-01T09:43:04;10.00;99.90
21568;DHT22;10944;42.590;12.630;2023-03-01T09:45:38;9.80;99.90
21568;DHT22;10944;42.590;12.630;2023-03-01T09:48:06;9.60;99.90
21568;DHT22;10944;42.590;12.630;2023-03-01T09:50:39;9.60;99.90
21568;DHT22;10944;42.590;12.630;2023-03-01T09:53:11;9.70;99.90
21568;DHT22;10944;42.590;12.630;2023-03-01T09:55:51;9.90;99.90
21568;DHT22;10944;42.590;12.630;2023-03-01T10:04:58;10.00;99.90
21568;DHT22;10944;42.590;12.630;2023-03-01T10:07:35;10.10;99.90
21568;DHT22;10944;42.590;12.630;2023-03-01T10:10:07;10.10;99.90
21568;DHT22;10944;42.590;12.630;2023-03-01T10:12:40;10.30;99.90
21568;DHT22;10944;42.590;12.630;2023-03-01T10:15:44;10.50;99.90
21568;DHT22;10944;42.590;12.630;2023-03-01T10:18:17;10.40;99.90
21568;DHT22;10944;42.590;12.630;2023-03-01T10:20:53;10.40;99.90
21568;DHT22;10944;42.590;12.630;2023-03-01T10:23:19;10.30;99.90
21568;DHT22;10944;42.590;12.630;2023-03-01T10:28:53;10.10;99.90
21568;DHT22;10944;42.590;12.630;2023-03-01T10:31:25;10.30;99.90
21568;DHT22;10944;42.590;12.630;2023-03-01T10:33:55;10.60;99.90
21568;DHT22;10944;42.590;12.630;2023-03-01T10:36:23;10.80;99.90
21568;DHT22;10944;42.590;12.630;2023-03-01T10:38:50;11.00;99.90
21568;DHT22;10944;42.590;12.630;2023-03-01T10:41:18;11.10;99.90
21568;DHT22;10944;42.590;12.630;2023-03-01T10:43:52;10.90;99.90
21568;DHT22;10944;42.590;12.630;2023-03-01T10:46:34;10.50;99.90
21568;DHT22;10944;42.590;12.630;2023-03-01T10:51:39;10.30;99.90
21568;DHT22;10944;42.590;12.630;2023-03-01T10:54:15;10.70;99.90
21568;DHT22;10944;42.590;12.630;2023-03-01T10:56:49;10.80;99.90
21568;DHT22;10944;42.590;12.630;2023-03-01T11:02:16;10.80;99.70
21568;DHT22;10944;42.590;12.630;2023-03-01T11:07:29;10.70;99.90
21568;DHT22;10944;42.590;12.630;2023-03-01T11:09:55;10.70;99.90
21568;DHT22;10944;42.590;12.630;2023-03-01T11:12:21;10.70;99.90
21568;DHT22;10944;42.590;12.630;2023-03-01T11:14:54;10.60;99.90
21568;DHT22;10944;42.590;12.630;2023-03-01T11:17:28;10.60;99.90
21568;DHT22;10944;42.590;12.630;2023-03-01T11:22:47;10.60;99.90
21568;DHT22;10944;42.590;12.630;2023-03-01T11:25:15;10.70;99.90
21568;DHT22;10944;42.590;12.630;2023-03-01T11:27:44;11.00;99.90
21568;DHT22;10944;42.590;12.630;2023-03-01T11:30:24;11.20;99.90
21568;DHT22;10944;42.590;12.630;2023-03-01T11:35:25;11.40;99.30
21568;DHT22;10944;42.590;12.630;2023-03-01T11:38:22;11.00;99.90
21568;DHT22;10944;42.590;12.630;2023-03-01T11:41:07;11.00;99.90
21568;DHT22;10944;42.590;12.630;2023-03-01T11:52:30;10.50;99.80
21568;DHT22;10944;42.590;12.630;2023-03-01T12:03:30;10.70;99.90
21568;DHT22;10944;42.590;12.630;2023-03-01T12:15:04;11.10;98.60
21568;DHT22;10944;42.590;12.630;2023-03-01T12:26:27;11.00;98.90
21568;DHT22;10944;42.590;12.630;2023-03-01T12:37:18;10.40;99.90
21568;DHT22;10944;42.590;12.630;2023-03-01T12:39:55;10.60;99.90
21568;DHT22;10944;42.590;12.630;2023-03-01T12:50:49;10.50;99.90
21568;DHT22;10944;42.590;12.630;2023-03-01T12:53:35;10.30;99.90
21568;DHT22;10944;42.590;12.630;2023-03-01T12:56:26;10.20;99.90
21568;DHT22;10944;42.590;12.630;2023-03-01T12:59:12;10.00;99.90
21568;DHT22;10944;42.590;12.630;2023-03-01T13:04:43;9.70;99.90
21568;DHT22;10944;42.590;12.630;2023-03-01T13:15:24;9.60;99.90
21568;DHT22;10944;42.590;12.630;2023-03-01T13:17:55;9.70;99.90
21568;DHT22;10944;42.590;12.630;2023-03-01T13:26:03;10.00;99.90
21568;DHT22;10944;42.590;12.630;2023-03-01T13:30:58;10.10;99.90
21568;DHT22;10944;42.590;12.630;2023-03-01T13:35:56;10.30;99.90
21568;DHT22;10944;42.590;12.630;2023-03-01T13:41:12;10.70;99.90
21568;DHT22;10944;42.590;12.630;2023-03-01T13:43:41;10.70;99.90
21568;DHT22;10944;42.590;12.630;2023-03-01T13:46:18;10.80;98.80
21568;DHT22;10944;42.590;12.630;2023-03-01T13:48:51;10.50;99.20
21568;DHT22;10944;42.590;12.630;2023-03-01T13:51:21;10.70;99.90
21568;DHT22;10944;42.590;12.630;2023-03-01T13:53:48;11.00;99.90
21568;DHT22;10944;42.590;12.630;2023-03-01T13:56:21;11.30;99.90
21568;DHT22;10944;42.590;12.630;2023-03-01T13:58:58;11.30;99.90
21568;DHT22;10944;42.590;12.630;2023-03-01T14:01:28;11.40;99.90
21568;DHT22;10944;42.590;12.630;2023-03-01T14:03:54;11.40;99.90
21568;DHT22;10944;42.590;12.630;2023-03-01T14:06:31;11.40;99.50
21568;DHT22;10944;42.590;12.630;2023-03-01T14:11:42;11.30;98.80
21568;DHT22;10944;42.590;12.630;2023-03-01T14:19:59;11.20;99.90
21568;DHT22;10944;42.590;12.630;2023-03-01T14:22:28;11.20;99.90
21568;DHT22;10944;42.590;12.630;2023-03-01T14:25:16;11.20;99.90
21568;DHT22;10944;42.590;12.630;2023-03-01T14:27:42;11.40;99.90
21568;DHT22;10944;42.590;12.630;2023-03-01T14:30:22;11.60;99.90
21568;DHT22;10944;42.590;12.630;2023-03-01T14:33:25;11.80;99.60
21568;DHT22;10944;42.590;12.630;2023-03-01T14:36:11;11.80;97.50
21568;DHT22;10944;42.590;12.630;2023-03-01T14:38:41;11.90;98.30
21568;DHT22;10944;42.590;12.630;2023-03-01T14:41:14;12.10;99.10
21568;DHT22;10944;42.590;12.630;2023-03-01T14:43:57;12.20;97.50
21568;DHT22;10944;42.590;12.630;2023-03-01T14:46:36;12.20;97.90
21568;DHT22;10944;42.590;12.630;2023-03-01T14:49:14;12.20;97.00
21568;DHT22;10944;42.590;12.630;2023-03-01T14:51:42;11.90;97.60
21568;DHT22;10944;42.590;12.630;2023-03-01T14:57:23;11.90;99.10
21568;DHT22;10944;42.590;12.630;2023-03-01T14:59:52;12.00;99.00
21568;DHT22;10944;42.590;12.630;2023-03-01T15:02:21;12.00;97.90
21568;DHT22;10944;42.590;12.630;2023-03-01T15:04:55;11.70;98.70
21568;DHT22;10944;42.590;12.630;2023-03-01T15:07:33;11.70;99.60
21568;DHT22;10944;42.590;12.630;2023-03-01T15:10:01;11.70;99.80
21568;DHT22;10944;42.590;12.630;2023-03-01T15:14:54;11.40;99.80
21568;DHT22;10944;42.590;12.630;2023-03-01T15:17:34;11.40;99.90
21568;DHT22;10944;42.590;12.630;2023-03-01T15:20:03;11.40;99.30
21568;DHT22;10944;42.590;12.630;2023-03-01T15:22:30;11.40;99.90
21568;DHT22;10944;42.590;12.630;2023-03-01T15:24:56;11.40;99.90
21568;DHT22;10944;42.590;12.630;2023-03-01T15:27:24;11.50;99.80
21568;DHT22;10944;42.590;12.630;2023-03-01T15:29:56;11.70;99.90
21568;DHT22;10944;42.590;12.630;2023-03-01T15:32:31;11.70;99.30
21568;DHT22;10944;42.590;12.630;2023-03-01T15:34:59;11.70;99.90
21568;DHT22;10944;42.590;12.630;2023-03-01T15:37:45;11.50;99.30
21568;DHT22;10944;42.590;12.630;2023-03-01T15:42:50;11.20;99.70
21568;DHT22;10944;42.590;12.630;2023-03-01T15:48:15;11.20;98.80
21568;DHT22;10944;42.590;12.630;2023-03-01T15:50:42;11.10;99.90
21568;DHT22;10944;42.590;12.630;2023-03-01T15:53:13;11.10;99.90
21568;DHT22;10944;42.590;12.630;2023-03-01T15:55:40;11.00;99.80
21568;DHT22;10944;42.590;12.630;2023-03-01T15:58:13;10.90;98.80
21568;DHT22;10944;42.590;12.630;2023-03-01T16:00:39;10.70;99.60
21568;DHT22;10944;42.590;12.630;2023-03-01T16:03:05;10.70;99.90
21568;DHT22;10944;42.590;12.630;2023-03-01T16:05:34;10.60;99.90
21568;DHT22;10944;42.590;12.630;2023-03-01T16:08:00;10.50;99.90
21568;DHT22;10944;42.590;12.630;2023-03-01T16:10:27;10.40;99.90
21568;DHT22;10944;42.590;12.630;2023-03-01T16:12:53;10.30;99.90
21568;DHT22;10944;42.590;12.630;2023-03-01T16:15:31;10.30;99.90
21568;DHT22;10944;42.590;12.630;2023-03-01T16:17:57;10.20;99.90
21568;DHT22;10944;42.590;12.630;2023-03-01T16:20:26;10.20;99.90
21568;DHT22;10944;42.590;12.630;2023-03-01T16:22:52;10.20;99.90
21568;DHT22;10944;42.590;12.630;2023-03-01T16:25:19;10.00;99.90
21568;DHT22;10944;42.590;12.630;2023-03-01T16:27:47;9.90;99.90
21568;DHT22;10944;42.590;12.630;2023-03-01T16:30:15;9.80;99.90
21568;DHT22;10944;42.590;12.630;2023-03-01T16:32:42;9.70;99.90
21568;DHT22;10944;42.590;12.630;2023-03-01T16:35:09;9.60;99.90
21568;DHT22;10944;42.590;12.630;2023-03-01T16:37:36;9.70;99.90
21568;DHT22;10944;42.590;12.630;2023-03-01T16:40:03;9.60;99.90
21568;DHT22;10944;42.590;12.630;2023-03-01T16:42:36;9.60;99.90
21568;DHT22;10944;42.590;12.630;2023-03-01T16:45:03;9.50;99.90
21568;DHT22;10944;42.590;12.630;2023-03-01T16:47:29;9.40;99.90
21568;DHT22;10944;42.590;12.630;2023-03-01T16:49:55;9.30;99.90
21568;DHT22;10944;42.590;12.630;2023-03-01T16:52:21;9.20;99.90
21568;DHT22;10944;42.590;12.630;2023-03-01T16:54:48;9.10;99.90
21568;DHT22;10944;42.590;12.630;2023-03-01T16:57:13;8.90;99.90
21568;DHT22;10944;42.590;12.630;2023-03-01T16:59:39;8.90;99.90
21568;DHT22;10944;42.590;12.630;2023-03-01T17:02:06;8.80;99.90
21568;DHT22;10944;42.590;12.630;2023-03-01T17:04:35;8.70;99.90
21568;DHT22;10944;42.590;12.630;2023-03-01T17:07:00;8.50;99.90
21568;DHT22;10944;42.590;12.630;2023-03-01T17:09:26;8.30;99.90
21568;DHT22;10944;42.590;12.630;2023-03-01T17:11:52;8.30;99.90
21568;DHT22;10944;42.590;12.630;2023-03-01T17:14:18;8.20;99.90
21568;DHT22;10944;42.590;12.630;2023-03-01T17:16:44;8.10;99.90
21568;DHT22;10944;42.590;12.630;2023-03-01T17:19:10;8.10;99.90
21568;DHT22;10944;42.590;12.630;2023-03-01T17:21:38;8.10;99.90
21568;DHT22;10944;42.590;12.630;2023-03-01T17:24:03;8.00;99.90
21568;DHT22;10944;42.590;12.630;2023-03-01T17:26:29;7.90;99.90
21568;DHT22;10944;42.590;12.630;2023-03-01T17:28:56;7.80;99.90
21568;DHT22;10944;42.590;12.630;2023-03-01T17:31:23;7.70;99.90
21568;DHT22;10944;42.590;12.630;2023-03-01T17:33:49;7.60;99.90
21568;DHT22;10944;42.590;12.630;2023-03-01T17:36:16;7.50;99.90
21568;DHT22;10944;42.590;12.630;2023-03-01T17:38:42;7.40;99.90
21568;DHT22;10944;42.590;12.630;2023-03-01T17:41:08;7.40;99.90
21568;DHT22;10944;42.590;12.630;2023-03-01T17:43:37;7.40;99.90
21568;DHT22;10944;42.590;12.630;2023-03-01T17:46:03;7.30;99.90
21568;DHT22;10944;42.590;12.630;2023-03-01T17:48:29;7.30;99.90
21568;DHT22;10944;42.590;12.630;2023-03-01T17:50:55;7.20;99.90
21568;DHT22;10944;42.590;12.630;2023-03-01T17:53:20;7.10;99.90